Terminal Aerodrome Forecast
Issued by NWS Medford, OR

Home | Current Version | Previous Version | Text Only | Print | Product List | Glossary On
Versions: 1 2 3 4 5 6 7 8 9 10 11 12 13 14 15
526
FTUS46 KMFR 250530
TAFMFR
TAF
KMFR 250530Z 2506/2606 VRB03KT P6SM VCSH SCT035 OVC050
     FM250700 00000KT P6SM SCT025 OVC035
     FM251700 VRB03KT P6SM SCT035 OVC050
     FM252000 VRB03KT P6SM -RA SCT030 OVC050=

USA.gov is the U.S. government's official web portal to all federal, state and local government web resources and services.